createdAt,value
2018-10-16T00:00:14.902Z,19.73
2018-10-16T00:02:45.383Z,22.02
2018-10-16T00:05:14.472Z,19.77
2018-10-16T00:07:43.309Z,19.55
2018-10-16T00:10:12.146Z,18.92
2018-10-16T00:12:41.168Z,19.85
2018-10-16T00:15:10.582Z,20.23
2018-10-16T00:17:39.463Z,19.77
2018-10-16T00:20:08.337Z,17.40
2018-10-16T00:22:37.194Z,18.48
2018-10-16T00:25:08.369Z,17.15
2018-10-16T00:27:37.768Z,20.30
2018-10-16T00:30:06.611Z,20.40
2018-10-16T00:32:35.572Z,19.75
2018-10-16T00:35:04.532Z,18.92
2018-10-16T00:37:33.534Z,18.23
2018-10-16T00:40:02.421Z,17.37
2018-10-16T00:42:31.432Z,21.02
2018-10-16T00:45:00.364Z,18.62
2018-10-16T00:47:29.326Z,18.95
2018-10-16T00:49:58.188Z,19.12
2018-10-16T00:52:27.073Z,17.87
2018-10-16T00:54:56.482Z,21.33
2018-10-16T00:57:25.283Z,19.70
2018-10-16T00:59:54.111Z,21.40
2018-10-16T01:02:22.953Z,18.30
2018-10-16T01:04:51.994Z,19.85
2018-10-16T01:07:21.066Z,16.10
2018-10-16T01:09:49.938Z,19.65
2018-10-16T01:12:18.803Z,19.90
2018-10-16T01:14:47.714Z,16.70
2018-10-16T01:17:16.580Z,17.07
2018-10-16T01:19:45.469Z,17.42
2018-10-16T01:22:14.309Z,19.70
2018-10-16T01:24:43.321Z,19.07
2018-10-16T01:27:12.191Z,19.95
2018-10-16T01:29:41.158Z,16.82
2018-10-16T01:32:10.008Z,16.75
2018-10-16T01:34:38.925Z,17.50
2018-10-16T01:37:07.755Z,19.10
2018-10-16T01:39:36.610Z,19.20
2018-10-16T01:42:05.520Z,17.67
2018-10-16T01:44:34.357Z,20.85
2018-10-16T01:47:03.512Z,21.20
2018-10-16T01:49:32.347Z,22.17
2018-10-16T01:52:01.256Z,16.87
2018-10-16T01:54:30.061Z,21.45
2018-10-16T01:56:58.923Z,20.68
2018-10-16T01:59:27.779Z,18.35
2018-10-16T02:01:56.634Z,17.02
2018-10-16T02:04:25.507Z,18.30
2018-10-16T02:06:54.370Z,17.12
2018-10-16T02:09:23.199Z,17.48
2018-10-16T02:11:52.124Z,17.75
2018-10-16T02:14:20.989Z,18.35
2018-10-16T02:16:49.862Z,18.70
2018-10-16T02:19:18.796Z,18.73
2018-10-16T02:21:47.736Z,18.73
2018-10-16T02:24:16.617Z,19.10
2018-10-16T02:26:45.478Z,21.25
2018-10-16T02:29:14.316Z,18.77
2018-10-16T02:31:43.237Z,19.32
2018-10-16T02:34:12.033Z,19.05
2018-10-16T02:36:40.833Z,20.85
2018-10-16T02:39:10.711Z,17.67
2018-10-16T02:41:39.796Z,19.65
2018-10-16T02:44:09.442Z,20.68
2018-10-16T02:46:38.297Z,19.67
2018-10-16T02:49:07.518Z,19.02
2018-10-16T02:51:36.390Z,18.15
2018-10-16T02:54:05.566Z,18.65
2018-10-16T02:56:34.433Z,20.52
2018-10-16T02:59:03.293Z,17.57
2018-10-16T03:01:32.212Z,17.55
2018-10-16T03:04:01.043Z,17.62
2018-10-16T03:06:29.862Z,20.25
2018-10-16T03:08:58.879Z,19.35
2018-10-16T03:11:27.710Z,21.02
2018-10-16T03:13:56.704Z,21.93
2018-10-16T03:16:25.574Z,19.45
2018-10-16T03:18:54.899Z,18.50
2018-10-16T03:21:24.028Z,18.23
2018-10-16T03:23:52.881Z,19.87
2018-10-16T03:26:21.987Z,20.82
2018-10-16T03:28:50.936Z,21.93
2018-10-16T03:31:19.753Z,20.57
2018-10-16T03:33:48.626Z,16.95
2018-10-16T03:36:18.677Z,23.15
2018-10-16T03:38:47.562Z,19.70
2018-10-16T03:41:16.390Z,18.32
2018-10-16T03:43:45.292Z,17.92
2018-10-16T03:46:14.181Z,22.02
2018-10-16T03:48:43.077Z,19.77
2018-10-16T03:51:12.105Z,21.42
2018-10-16T03:53:41.647Z,21.48
2018-10-16T03:56:10.535Z,18.17
2018-10-16T03:58:41.240Z,23.80
2018-10-16T04:01:10.085Z,20.27
2018-10-16T04:03:38.946Z,20.68
2018-10-16T04:06:07.787Z,22.52
2018-10-16T04:08:36.737Z,21.93
2018-10-16T04:11:05.996Z,21.23
2018-10-16T04:13:34.846Z,21.00
2018-10-16T04:16:03.681Z,20.12
2018-10-16T04:18:32.506Z,19.67
2018-10-16T04:21:01.320Z,20.57
2018-10-16T04:23:30.204Z,22.35
2018-10-16T04:25:59.061Z,25.45
2018-10-16T04:28:27.923Z,19.60
2018-10-16T04:30:57.288Z,22.05
2018-10-16T04:33:26.098Z,20.45
2018-10-16T04:35:54.912Z,20.57
2018-10-16T04:38:23.681Z,20.40
2018-10-16T04:40:53.087Z,18.92
2018-10-16T04:43:21.839Z,24.43
2018-10-16T04:45:50.696Z,22.15
2018-10-16T04:48:19.532Z,19.42
2018-10-16T04:50:48.311Z,20.65
2018-10-16T04:53:17.127Z,23.00
2018-10-16T04:55:45.913Z,24.60
2018-10-16T04:58:14.700Z,19.30
2018-10-16T05:00:43.513Z,20.02
2018-10-16T05:03:12.371Z,21.82
2018-10-16T05:05:41.211Z,19.70
2018-10-16T05:08:10.150Z,21.30
2018-10-16T05:10:38.967Z,21.07
2018-10-16T05:13:07.933Z,23.73
2018-10-16T05:15:36.690Z,20.88
2018-10-16T05:18:05.499Z,23.87
2018-10-16T05:20:34.602Z,21.95
2018-10-16T05:23:03.670Z,24.35
2018-10-16T05:25:32.435Z,22.80
2018-10-16T05:28:01.238Z,22.22
2018-10-16T05:30:30.085Z,21.27
2018-10-16T05:32:58.843Z,25.95
2018-10-16T05:35:29.441Z,28.52
2018-10-16T05:37:58.341Z,22.60
2018-10-16T05:40:27.192Z,21.15
2018-10-16T05:42:56.866Z,22.22
2018-10-16T05:45:26.540Z,24.47
2018-10-16T05:47:55.543Z,27.27
2018-10-16T05:50:24.486Z,29.42
2018-10-16T05:52:53.728Z,28.15
2018-10-16T05:55:22.519Z,27.20
2018-10-16T05:57:51.888Z,26.57
2018-10-16T06:00:33.487Z,25.75
2018-10-16T06:03:02.263Z,26.80
2018-10-16T06:05:31.128Z,27.32
2018-10-16T06:07:59.892Z,27.32
2018-10-16T06:10:28.662Z,25.25
2018-10-16T06:12:57.530Z,48.00
2018-10-16T06:15:26.334Z,28.38
2018-10-16T06:17:55.213Z,32.67
2018-10-16T06:20:24.006Z,26.68
2018-10-16T06:22:53.010Z,25.12
2018-10-16T06:25:21.783Z,31.70
2018-10-16T06:27:51.329Z,27.70
2018-10-16T06:30:20.229Z,24.92
2018-10-16T06:32:48.975Z,24.50
2018-10-16T06:35:18.058Z,24.32
2018-10-16T06:37:46.890Z,22.60
2018-10-16T06:40:15.824Z,25.02
2018-10-16T06:42:44.666Z,22.30
2018-10-16T06:45:13.566Z,22.65
2018-10-16T06:47:42.671Z,22.02
2018-10-16T06:50:11.375Z,26.45
2018-10-16T06:52:40.163Z,25.62
2018-10-16T06:55:09.034Z,27.20
2018-10-16T06:57:37.872Z,23.20
2018-10-16T07:00:07.443Z,27.58
2018-10-16T07:02:36.299Z,25.17
2018-10-16T07:05:06.424Z,22.00
2018-10-16T07:07:35.346Z,22.70
2018-10-16T07:10:04.410Z,31.20
2018-10-16T07:12:33.230Z,29.82
2018-10-16T07:15:02.248Z,23.00
2018-10-16T07:17:30.956Z,23.98
2018-10-16T07:19:59.804Z,26.97
2018-10-16T07:22:28.655Z,25.02
2018-10-16T07:24:57.449Z,29.30
2018-10-16T07:27:26.362Z,23.52
2018-10-16T07:29:55.355Z,27.37
2018-10-16T07:32:24.186Z,24.92
2018-10-16T07:34:53.077Z,33.73
2018-10-16T07:37:21.863Z,33.88
2018-10-16T07:39:50.727Z,29.52
2018-10-16T07:42:19.624Z,27.27
2018-10-16T07:44:48.517Z,31.42
2018-10-16T07:47:17.420Z,31.45
2018-10-16T07:49:46.210Z,33.88
2018-10-16T07:52:15.005Z,36.53
2018-10-16T07:54:43.819Z,33.60
2018-10-16T07:57:12.797Z,34.18
2018-10-16T07:59:41.590Z,29.40
2018-10-16T08:02:10.675Z,32.53
2018-10-16T08:04:39.464Z,33.40
2018-10-16T08:07:08.295Z,35.08
2018-10-16T08:09:37.133Z,34.50
2018-10-16T08:12:08.373Z,29.72
2018-10-16T08:14:37.891Z,34.30
2018-10-16T08:17:07.237Z,37.23
2018-10-16T08:19:36.079Z,32.10
2018-10-16T08:22:05.209Z,32.13
2018-10-16T08:24:34.016Z,29.50
2018-10-16T08:27:02.827Z,29.85
2018-10-16T08:29:31.676Z,34.48
2018-10-16T08:32:00.522Z,29.48
2018-10-16T08:34:29.416Z,36.40
2018-10-16T08:36:58.474Z,38.00
2018-10-16T08:39:30.239Z,34.92
2018-10-16T08:42:39.114Z,34.53
2018-10-16T08:45:20.275Z,38.92
2018-10-16T08:48:00.647Z,35.70
2018-10-16T08:50:42.644Z,36.05
2018-10-16T08:53:11.604Z,44.63
2018-10-16T08:55:40.576Z,46.42
2018-10-16T08:58:09.417Z,36.98
2018-10-16T09:00:38.358Z,35.08
2018-10-16T09:03:07.364Z,43.35
2018-10-16T09:05:36.222Z,41.20
2018-10-16T09:08:05.081Z,37.55
2018-10-16T09:10:34.845Z,40.63
2018-10-16T09:13:03.989Z,45.30
2018-10-16T09:15:32.834Z,38.40
2018-10-16T09:18:01.690Z,38.58
2018-10-16T09:20:30.525Z,38.25
2018-10-16T09:22:59.383Z,46.28
2018-10-16T09:25:28.199Z,52.08
2018-10-16T09:27:57.830Z,33.92
2018-10-16T09:30:26.684Z,39.05
2018-10-16T09:32:55.730Z,34.55
2018-10-16T09:35:25.088Z,42.78
2018-10-16T09:37:54.025Z,38.73
2018-10-16T09:40:23.076Z,36.77
2018-10-16T09:42:52.134Z,39.13
2018-10-16T09:45:20.963Z,37.33
2018-10-16T09:47:49.772Z,32.60
2018-10-16T09:50:18.560Z,32.15
2018-10-16T09:52:47.466Z,37.05
2018-10-16T09:55:16.216Z,31.25
2018-10-16T09:57:45.105Z,29.67
2018-10-16T10:00:19.453Z,32.10
2018-10-16T10:02:48.353Z,28.05
2018-10-16T10:05:17.150Z,30.00
2018-10-16T10:07:45.992Z,33.58
2018-10-16T10:10:14.830Z,30.50
2018-10-16T10:12:43.604Z,31.30
2018-10-16T10:15:12.524Z,25.27
2018-10-16T10:17:41.401Z,27.55
2018-10-16T10:20:10.335Z,30.62
2018-10-16T10:22:39.195Z,30.27
2018-10-16T10:27:52.894Z,25.95
2018-10-16T10:30:22.441Z,30.82
2018-10-16T10:32:52.535Z,27.67
2018-10-16T10:35:21.514Z,28.32
2018-10-16T10:37:50.419Z,32.38
2018-10-16T10:40:19.882Z,29.32
2018-10-16T10:42:48.991Z,28.70
2018-10-16T10:45:17.827Z,30.62
2018-10-16T10:47:46.614Z,30.02
2018-10-16T10:50:15.622Z,29.25
2018-10-16T10:52:44.398Z,33.00
2018-10-16T10:55:13.288Z,30.68
2018-10-16T10:57:42.449Z,33.28
2018-10-16T11:00:12.771Z,27.30
2018-10-16T11:02:42.475Z,28.02
2018-10-16T11:05:12.037Z,27.95
2018-10-16T11:07:40.823Z,31.17
2018-10-16T11:10:11.440Z,29.63
2018-10-16T11:12:40.751Z,25.12
2018-10-16T11:15:09.929Z,29.32
2018-10-16T11:17:39.544Z,30.27
2018-10-16T11:20:10.536Z,27.27
2018-10-16T11:22:39.481Z,29.87
2018-10-16T11:25:09.262Z,24.50
2018-10-16T11:27:38.307Z,21.20
2018-10-16T11:30:10.083Z,26.70
2018-10-16T11:32:39.096Z,28.42
2018-10-16T11:35:08.532Z,26.25
2018-10-16T11:37:37.467Z,24.47
2018-10-16T11:40:07.435Z,25.62
2018-10-16T11:42:36.389Z,21.93
2018-10-16T11:45:06.386Z,23.18
2018-10-16T11:47:35.199Z,26.10
2018-10-16T11:50:04.462Z,24.77
2018-10-16T11:52:33.254Z,32.67
2018-10-16T11:55:02.136Z,35.28
2018-10-16T11:57:31.003Z,30.75
2018-10-16T11:59:59.848Z,22.32
2018-10-16T12:02:28.837Z,26.97
2018-10-16T12:04:57.771Z,26.05
2018-10-16T12:07:26.833Z,25.25
2018-10-16T12:09:55.682Z,27.22
2018-10-16T12:12:24.662Z,29.85
2018-10-16T12:14:53.566Z,33.30
2018-10-16T12:18:26.535Z,24.55
2018-10-16T12:20:59.754Z,29.27
2018-10-16T12:23:28.717Z,26.23
2018-10-16T12:25:57.468Z,23.67
2018-10-16T12:31:01.470Z,29.10
2018-10-16T12:33:30.317Z,25.50
2018-10-16T12:35:59.224Z,29.42
2018-10-16T12:38:28.130Z,23.25
2018-10-16T12:40:57.065Z,27.22
2018-10-16T12:43:26.184Z,27.50
2018-10-16T12:45:55.939Z,25.88
2018-10-16T12:48:24.752Z,23.77
2018-10-16T12:50:56.696Z,27.00
2018-10-16T12:53:25.962Z,26.70
2018-10-16T12:55:54.885Z,31.33
2018-10-16T12:58:23.697Z,27.05
2018-10-16T13:00:52.585Z,29.60
2018-10-16T13:03:21.580Z,29.65
2018-10-16T13:05:50.373Z,34.45
2018-10-16T13:08:19.159Z,26.12
2018-10-16T13:10:48.035Z,26.95
2018-10-16T13:13:16.886Z,26.00
2018-10-16T13:15:45.742Z,21.87
2018-10-16T13:18:14.570Z,27.30
2018-10-16T13:20:43.440Z,24.50
2018-10-16T13:23:12.457Z,32.25
2018-10-16T13:25:41.331Z,27.95
2018-10-16T13:28:10.895Z,29.60
2018-10-16T13:30:39.728Z,26.77
2018-10-16T13:33:08.826Z,28.10
2018-10-16T13:35:38.223Z,28.90
2018-10-16T13:38:07.472Z,29.30
2018-10-16T13:40:36.200Z,32.13
2018-10-16T13:43:05.425Z,32.48
2018-10-16T13:45:34.399Z,29.55
2018-10-16T13:48:03.604Z,32.25
2018-10-16T13:50:32.478Z,28.92
2018-10-16T13:53:01.272Z,29.40
2018-10-16T13:55:30.132Z,32.80
2018-10-16T13:57:59.202Z,32.38
2018-10-16T14:00:27.971Z,34.90
2018-10-16T14:02:56.728Z,32.40
2018-10-16T14:05:25.521Z,33.80
2018-10-16T14:07:54.355Z,30.95
2018-10-16T14:10:23.317Z,34.40
2018-10-16T14:12:52.366Z,31.05
2018-10-16T14:15:21.434Z,32.75
2018-10-16T14:17:50.322Z,34.48
2018-10-16T14:20:19.389Z,27.73
2018-10-16T14:22:48.258Z,31.75
2018-10-16T14:25:17.258Z,29.80
2018-10-16T14:27:46.196Z,34.18
2018-10-16T14:30:15.963Z,29.70
2018-10-16T14:32:44.833Z,28.60
2018-10-16T14:35:14.165Z,28.77
2018-10-16T14:37:42.955Z,28.27
2018-10-16T14:40:13.639Z,30.25
2018-10-16T14:42:42.744Z,29.67
2018-10-16T14:45:12.425Z,32.50
2018-10-16T14:47:42.251Z,35.73
2018-10-16T14:50:12.598Z,31.05
2018-10-16T14:52:41.641Z,31.27
2018-10-16T14:55:10.506Z,35.98
2018-10-16T14:57:39.630Z,34.75
2018-10-16T15:00:10.083Z,37.17
2018-10-16T15:02:39.023Z,36.28
2018-10-16T15:05:08.388Z,35.60
2018-10-16T15:07:37.283Z,36.80
2018-10-16T15:10:07.135Z,37.58
2018-10-16T15:12:36.014Z,38.92
2018-10-16T15:15:05.993Z,38.98
2018-10-16T15:17:35.021Z,31.75
2018-10-16T15:20:03.994Z,35.80
2018-10-16T15:22:33.031Z,32.48
2018-10-16T15:25:01.806Z,36.53
2018-10-16T15:27:30.990Z,32.42
2018-10-16T15:30:00.088Z,32.95
2018-10-16T15:32:28.931Z,31.50
2018-10-16T15:34:57.741Z,34.35
2018-10-16T15:37:26.850Z,32.17
2018-10-16T15:39:55.832Z,30.57
2018-10-16T15:42:24.971Z,33.98
2018-10-16T15:44:53.974Z,31.15
2018-10-16T15:47:22.800Z,31.42
2018-10-16T15:49:52.659Z,32.50
2018-10-16T15:52:21.436Z,34.03
2018-10-16T15:54:51.476Z,32.83
2018-10-16T15:57:21.805Z,32.85
2018-10-16T15:59:50.774Z,31.02
2018-10-16T16:02:19.717Z,31.27
2018-10-16T16:04:48.542Z,37.80
2018-10-16T16:07:17.821Z,31.45
2018-10-16T16:09:47.039Z,37.75
2018-10-16T16:12:16.279Z,36.17
2018-10-16T16:14:46.117Z,34.27
2018-10-16T16:17:15.360Z,37.58
2018-10-16T16:19:44.506Z,40.95
2018-10-16T16:22:13.381Z,38.40
2018-10-16T16:24:42.259Z,37.35
2018-10-16T16:27:11.052Z,40.70
2018-10-16T16:29:39.908Z,43.33
2018-10-16T16:32:09.121Z,41.20
2018-10-16T16:34:37.859Z,39.58
2018-10-16T16:37:13.300Z,34.90
2018-10-16T16:39:42.137Z,43.70
2018-10-16T16:42:11.109Z,36.75
2018-10-16T16:44:39.916Z,36.22
2018-10-16T16:47:08.884Z,36.90
2018-10-16T16:49:37.779Z,34.27
2018-10-16T16:52:06.856Z,36.73
2018-10-16T16:54:35.702Z,39.67
2018-10-16T16:57:04.839Z,40.55
2018-10-16T16:59:33.767Z,42.33
2018-10-16T17:02:02.746Z,40.33
2018-10-16T17:04:31.573Z,39.40
2018-10-16T17:07:00.711Z,41.33
2018-10-16T17:09:29.552Z,38.92
2018-10-16T17:11:58.699Z,40.40
2018-10-16T17:14:27.827Z,36.98
2018-10-16T17:16:56.610Z,40.08
2018-10-16T17:19:26.036Z,39.80
2018-10-16T17:21:55.048Z,43.10
2018-10-16T17:24:23.850Z,47.03
2018-10-16T17:26:52.890Z,47.33
2018-10-16T17:29:22.892Z,50.25
2018-10-16T17:31:51.903Z,46.65
2018-10-16T17:34:20.778Z,42.55
2018-10-16T17:36:49.622Z,44.73
2018-10-16T17:39:18.535Z,37.90
2018-10-16T17:41:48.267Z,32.10
2018-10-16T17:44:17.106Z,35.92
2018-10-16T17:46:46.008Z,36.50
2018-10-16T17:49:15.145Z,33.48
2018-10-16T17:51:44.053Z,39.30
2018-10-16T17:54:12.950Z,32.75
2018-10-16T17:56:41.840Z,40.83
2018-10-16T17:59:11.526Z,36.50
2018-10-16T18:01:40.880Z,35.40
2018-10-16T18:04:09.740Z,36.50
2018-10-16T18:06:39.032Z,36.00
2018-10-16T18:09:08.668Z,34.58
2018-10-16T18:11:37.877Z,35.60
2018-10-16T18:14:07.328Z,33.35
2018-10-16T18:16:36.406Z,32.60
2018-10-16T18:19:05.702Z,30.88
2018-10-16T18:21:34.941Z,36.03
2018-10-16T18:24:04.100Z,32.10
2018-10-16T18:26:33.135Z,33.13
2018-10-16T18:29:02.378Z,42.67
2018-10-16T18:31:31.278Z,38.30
2018-10-16T18:34:00.523Z,31.90
2018-10-16T18:36:29.852Z,47.40
2018-10-16T18:38:59.410Z,42.55
2018-10-16T18:41:28.786Z,36.48
2018-10-16T18:43:58.807Z,36.90
2018-10-16T18:46:27.880Z,34.43
2018-10-16T18:48:56.994Z,33.40
2018-10-16T18:51:25.886Z,35.48
2018-10-16T18:53:57.052Z,37.65
2018-10-16T18:56:26.012Z,44.85
2018-10-16T18:58:54.914Z,37.95
2018-10-16T19:01:23.740Z,41.35
2018-10-16T19:03:52.725Z,41.48
2018-10-16T19:06:23.125Z,35.33
2018-10-16T19:08:52.144Z,42.17
2018-10-16T19:11:21.243Z,51.00
2018-10-16T19:13:50.166Z,42.70
2018-10-16T19:16:18.990Z,43.68
2018-10-16T19:18:48.674Z,42.10
2018-10-16T19:21:17.829Z,43.80
2018-10-16T19:23:49.482Z,40.55
2018-10-16T19:26:18.780Z,42.62
2018-10-16T19:28:47.880Z,36.60
2018-10-16T19:31:17.024Z,34.73
2018-10-16T19:33:47.266Z,41.02
2018-10-16T19:36:16.361Z,41.60
2018-10-16T19:38:45.719Z,35.33
2018-10-16T19:41:14.908Z,42.62
2018-10-16T19:43:43.872Z,40.30
2018-10-16T19:46:12.797Z,40.38
2018-10-16T19:48:41.693Z,41.80
2018-10-16T19:51:10.617Z,41.50
2018-10-16T19:53:39.471Z,41.55
2018-10-16T19:56:08.484Z,45.15
2018-10-16T19:58:37.596Z,79.10
2018-10-16T20:01:06.537Z,46.68
2018-10-16T20:03:35.489Z,36.98
2018-10-16T20:06:04.422Z,38.40
2018-10-16T20:08:33.855Z,37.53
2018-10-16T20:11:02.836Z,39.65
2018-10-16T20:13:31.719Z,38.40
2018-10-16T20:16:00.727Z,47.70
2018-10-16T20:18:29.519Z,39.23
2018-10-16T20:20:59.434Z,34.65
2018-10-16T20:23:29.731Z,36.38
2018-10-16T20:26:00.388Z,37.33
2018-10-16T20:28:33.609Z,37.60
2018-10-16T20:31:02.618Z,41.93
2018-10-16T20:33:31.629Z,39.73
2018-10-16T20:36:00.898Z,39.23
2018-10-16T20:38:29.874Z,42.95
2018-10-16T20:40:58.789Z,41.30
2018-10-16T20:43:27.724Z,39.80
2018-10-16T20:45:57.129Z,43.85
2018-10-16T20:48:26.097Z,41.15
2018-10-16T20:50:54.988Z,43.17
2018-10-16T20:53:24.191Z,44.35
2018-10-16T20:55:53.042Z,43.42
2018-10-16T20:58:22.012Z,43.03
2018-10-16T21:00:51.507Z,51.02
2018-10-16T21:03:20.468Z,55.65
2018-10-16T21:05:50.544Z,46.20
2018-10-16T21:08:19.565Z,47.35
2018-10-16T21:10:48.912Z,42.43
2018-10-16T21:13:17.803Z,51.03
2018-10-16T21:15:46.694Z,42.78
2018-10-16T21:18:15.682Z,43.20
2018-10-16T21:20:44.656Z,46.48
2018-10-16T21:23:13.528Z,43.13
2018-10-16T21:25:42.260Z,42.83
2018-10-16T21:28:11.098Z,47.08
2018-10-16T21:30:39.972Z,47.62
2018-10-16T21:33:08.778Z,42.62
2018-10-16T21:35:37.796Z,48.68
2018-10-16T21:38:06.741Z,50.00
2018-10-16T21:43:04.700Z,43.02
2018-10-16T21:45:33.923Z,43.50
2018-10-16T21:48:02.951Z,42.65
2018-10-16T21:50:33.077Z,45.88
2018-10-16T21:53:02.036Z,47.23
2018-10-16T21:55:31.125Z,41.75
2018-10-16T21:58:00.203Z,43.38
2018-10-16T22:00:35.791Z,52.30
2018-10-16T22:03:05.002Z,43.83
2018-10-16T22:05:33.897Z,47.43
2018-10-16T22:08:02.997Z,46.85
2018-10-16T22:10:32.973Z,47.62
2018-10-16T22:13:02.307Z,45.50
2018-10-16T22:15:31.237Z,42.25
2018-10-16T22:18:00.197Z,48.48
2018-10-16T22:20:29.060Z,49.67
2018-10-16T22:22:58.796Z,45.05
2018-10-16T22:25:27.589Z,51.73
2018-10-16T22:27:56.490Z,44.80
2018-10-16T22:30:25.518Z,46.77
2018-10-16T22:32:54.306Z,49.93
2018-10-16T22:35:23.329Z,50.83
2018-10-16T22:37:52.130Z,53.45
2018-10-16T22:40:21.111Z,52.75
2018-10-16T22:42:49.960Z,50.78
2018-10-16T22:45:18.763Z,51.75
2018-10-16T22:47:47.577Z,56.42
2018-10-16T22:50:16.401Z,48.52
2018-10-16T22:52:45.151Z,49.15
2018-10-16T22:55:14.011Z,51.45
2018-10-16T22:57:42.837Z,53.45
2018-10-16T23:00:17.660Z,53.60
2018-10-16T23:02:47.445Z,49.88
2018-10-16T23:05:16.390Z,47.90
2018-10-16T23:07:46.431Z,44.90
2018-10-16T23:10:15.627Z,44.23
2018-10-16T23:12:45.099Z,45.78
2018-10-16T23:15:14.061Z,46.35
2018-10-16T23:17:43.028Z,43.05
2018-10-16T23:20:12.333Z,43.78
2018-10-16T23:22:41.552Z,46.05
2018-10-16T23:25:10.415Z,42.60
2018-10-16T23:27:39.413Z,46.92
2018-10-16T23:30:08.286Z,47.78
2018-10-16T23:32:37.038Z,43.83
2018-10-16T23:35:06.519Z,41.68
2018-10-16T23:37:35.297Z,47.70
2018-10-16T23:40:04.138Z,49.18
2018-10-16T23:42:32.912Z,47.53
2018-10-16T23:45:01.701Z,49.00
2018-10-16T23:47:31.371Z,51.28
2018-10-16T23:50:00.203Z,47.15
2018-10-16T23:52:29.018Z,48.35
2018-10-16T23:54:57.845Z,47.62
2018-10-16T23:57:26.636Z,50.20
2018-10-16T23:59:55.410Z,53.80
